• Join FlightAware (Why Join?)
  • Login
  • US Flag 
01:53PM EDT


 

Airport Tracker/Info


-or-


 

Live Flight TrackerFlight Track Log ✈ N53NW ✈ 30-Aug-2013 ✈ KSRQ - KJAX

Flight Track Log - Related Links

Times and Time Zones

All times are in EDT time to prevent confusion due to time zone crossing. See the N53NW flight status page for this flight to view local times or setup timezone preferences in your user account.

Time Position Orientation Groundspeed Altitude Reporting Facility
EDT Latitude Longitude Course Direction KTS MPH feet Rate Location/Type
02:28PM 27.4000 -82.5667 270° West 173 199 700  Level Tampa TRACON
02:29PM 27.4000 -82.6500 270° West 230 265 4,000 2,520 Climbing Tampa TRACON
02:30PM 27.4000 -82.7333 270° West 278 320 7,000 2,520 Climbing Tampa TRACON
02:33PM 27.5347 -82.8092 333° Northwest 282 325 12,300 2,460 Climbing Miami Center
02:34PM 27.6083 -82.8458 336° Northwest 282 325 14,800 2,460 Climbing Miami Center
02:35PM 27.6819 -82.8847 335° Northwest 282 325 17,300 1,080 Climbing Miami Center
02:36PM 27.8264 -82.9631 334° Northwest 312 359 17,900 180 Climbing Jacksonville Center
02:37PM 27.9119 -82.9958 341° North 325 374 17,900  Level Jacksonville Center
02:38PM 27.9975 -82.9914 North 310 357 17,900  Level Jacksonville Center
02:39PM 28.0811 -82.9561 20° North 303 349 17,900  Level Jacksonville Center
02:40PM 28.1644 -82.9233 19° North 309 356 17,900  Level Jacksonville Center
02:41PM 28.2564 -82.8831 21° North 309 356 17,900  Level Jacksonville Center
02:42PM 28.3397 -82.8503 19° North 314 361 17,900  Level Jacksonville Center
02:43PM 28.4253 -82.8122 21° North 314 361 17,900  Level Jacksonville Center
02:44PM 28.5108 -82.7792 19° North 314 361 17,900  Level Jacksonville Center
02:45PM 28.5964 -82.7411 21° North 314 361 17,900  Level Jacksonville Center
02:46PM 28.6819 -82.7056 20° North 319 367 17,900  Level Jacksonville Center
02:47PM 28.7569 -82.6700 23° Northeast 314 361 17,900  Level Jacksonville Center
02:49PM 28.8391 -82.6327 22° Northeast  Level FlightAware Approximate
02:49PM 28.9258 -82.5983 22° Northeast 314 361 17,900  Level Jacksonville Center
02:50PM 29.0094 -82.5625 21° North 314 361 17,900  Level Jacksonville Center
02:51PM 29.0928 -82.5267 21° North 314 361 17,900  Level Jacksonville Center
02:52PM 29.1783 -82.4906 20° North 314 361 17,900  Level Jacksonville Center
02:53PM 29.2617 -82.4569 19° North 309 356 17,900 60 Level Jacksonville Center
02:54PM 29.3283 -82.4306 19° North 322 371 18,000  Climbing Jacksonville Center
02:55PM 29.4283 -82.3822 23° Northeast 309 356 17,900 -60 Descending Jacksonville Center
02:56PM 29.5139 -82.3486 19° North 309 356 17,900 -600 Level Jacksonville Center
02:57PM 29.5950 -82.3122 21° North 309 356 16,800 -1,200 Descending Jacksonville Center
02:58PM 29.6806 -82.2758 20° North 309 356 15,500 -1,500 Descending Jacksonville Center
02:59PM 29.7575 -82.2250 30° Northeast 309 356 13,900 -1,860 Descending Jacksonville Center
03:00PM 29.8344 -82.1742 30° Northeast 309 356 11,800 -1,980 Descending Jacksonville Center
03:01PM 29.9094 -82.1378 23° Northeast 302 348 10,000 -1,560 Descending Jacksonville Center
03:02PM 29.9800 -82.1036 23° Northeast 289 333 8,700 -1,620 Descending Jacksonville Center
03:03PM 30.0531 -82.0694 22° Northeast 283 326 6,800 -1,920 Descending Jacksonville Center
03:04PM 30.0925 -82.0500 23° Northeast 271 312 5,900 -1,200 Descending Jacksonville Center
03:05PM 30.1633 -82.0206 20° North 261 300 5,000 -480 Descending Jacksonville Center
03:06PM 30.2342 -81.9836 24° Northeast 270 311 5,000  Level Jacksonville Center
03:07PM 30.2944 -81.9592 19° North 231 266 5,000 -900 Level Jacksonville Center
03:08PM 30.3672 -81.9247 22° Northeast 261 300 3,100 -1,380 Descending Jacksonville Center
03:09PM 30.4336 -81.8831 28° Northeast 265 305 2,100 -600 Descending Jacksonville Center
03:10PM 30.4583 -81.8250 64° Northeast 185 213 2,000 -420 Descending Jacksonville Center
03:11PM 30.4706 -81.7814 72° East 154 177 1,400 -660 Descending Jacksonville Center
03:12PM 30.4806 -81.7403 74° East 123 142 800 -600 Descending Jacksonville Center
03:13PM 30.4928 -81.7064 67° East 122 140 200 -600 Descending Jacksonville Center
03:15PM 30.4833 -81.6833 33° Northeast  Level FlightAware Approximate
03:22PM 30.4941 -81.6879 33° Northeast  Level Estimated